Time;durP1;ratioP1;P1;durP2;ratioP2;P2;SDS_P1;SDS_P2;PMS_P1;PMS_P2;Temp;Humidity;BMP_temperature;BMP_pressure;BME280_temperature;BME280_humidity;BME280_pressure;Samples;Min_cycle;Max_cycle;Signal;HPM_P1;HPM_P2
2023/10/06 00:01:52;;;;;;;50.22;28.83;;;18.30;99.90;;;;;;4918560;29;20040;-74
2023/10/06 00:04:22;;;;;;;56.90;29.70;;;18.30;99.90;;;;;;4918577;29;20024;-75
2023/10/06 00:06:48;;;;;;;55.35;28.77;;;18.30;99.90;;;;;;4919018;29;20355;-74
2023/10/06 00:09:37;;;;;;;56.17;31.23;;;18.40;99.90;;;;;;4922790;29;20024;-74
2023/10/06 00:12:05;;;;;;;54.90;29.77;;;18.30;99.90;;;;;;4924677;29;20438;-75
2023/10/06 00:14:48;;;;;;;56.08;29.45;;;18.40;99.90;;;;;;4922616;29;20039;-75
2023/10/06 00:17:17;;;;;;;53.17;28.20;;;18.30;99.90;;;;;;4926180;29;20052;-75
2023/10/06 00:19:51;;;;;;;61.13;30.77;;;18.30;99.90;;;;;;4923875;29;20047;-75
2023/10/06 00:22:18;;;;;;;54.28;29.58;;;18.30;99.90;;;;;;4924807;29;20032;-75
2023/10/06 00:24:55;;;;;;;61.17;30.80;;;18.30;99.90;;;;;;4923416;29;20040;-74
2023/10/06 00:27:24;;;;;;;56.75;30.70;;;18.30;99.90;;;;;;4923515;29;20036;-74
2023/10/06 00:29:57;;;;;;;56.67;29.92;;;18.30;99.90;;;;;;4923348;29;20119;-74
2023/10/06 00:32:26;;;;;;;55.63;28.15;;;18.30;99.90;;;;;;4922428;29;20490;-75
2023/10/06 00:34:55;;;;;;;52.45;29.73;;;18.30;99.90;;;;;;4921381;29;20042;-75
2023/10/06 00:37:24;;;;;;;56.30;31.98;;;18.30;99.90;;;;;;4905692;29;20039;-75
2023/10/06 00:39:56;;;;;;;55.63;30.80;;;18.30;99.90;;;;;;4919314;29;20509;-75
2023/10/06 00:42:22;;;;;;;50.75;28.77;;;18.30;99.90;;;;;;4923312;29;20457;-74
2023/10/06 00:44:49;;;;;;;57.63;30.02;;;18.30;99.90;;;;;;4905917;29;20385;-74
2023/10/06 00:47:17;;;;;;;60.42;31.98;;;18.30;99.90;;;;;;4922446;29;20036;-74
2023/10/06 00:49:44;;;;;;;66.32;33.17;;;18.30;99.90;;;;;;4920991;29;20505;-74
2023/10/06 00:52:15;;;;;;;67.95;33.13;;;18.40;99.90;;;;;;4927209;29;20044;-74
2023/10/06 00:54:46;;;;;;;68.75;33.63;;;18.40;99.90;;;;;;4921367;29;20514;-75
2023/10/06 00:57:18;;;;;;;66.88;34.10;;;18.40;99.90;;;;;;4907272;29;20039;-75
2023/10/06 00:59:45;;;;;;;72.57;35.03;;;18.30;99.90;;;;;;4920844;29;20028;-74
2023/10/06 01:02:14;;;;;;;66.72;33.00;;;18.30;99.90;;;;;;4922025;29;20024;-74
2023/10/06 01:04:52;;;;;;;66.72;32.08;;;18.30;99.90;;;;;;4921288;29;20036;-75
2023/10/06 01:07:19;;;;;;;56.45;31.50;;;18.30;99.90;;;;;;4925517;29;20036;-74
2023/10/06 01:10:07;;;;;;;65.45;32.65;;;18.30;99.90;;;;;;4925593;29;20035;-74
2023/10/06 01:12:39;;;;;;;66.72;33.85;;;18.30;99.90;;;;;;4925557;29;20086;-75
2023/10/06 01:15:19;;;;;;;69.00;34.08;;;18.20;99.90;;;;;;4921311;29;20024;-74
2023/10/06 01:17:53;;;;;;;73.30;35.85;;;18.20;99.90;;;;;;4922276;29;20035;-74
2023/10/06 01:20:35;;;;;;;68.40;34.65;;;18.20;99.90;;;;;;4923397;29;20042;-75
2023/10/06 01:23:03;;;;;;;70.18;34.90;;;18.20;99.90;;;;;;4925006;29;20029;-75
2023/10/06 01:25:34;;;;;;;67.25;33.95;;;18.20;99.90;;;;;;4923095;29;20025;-75
2023/10/06 01:28:03;;;;;;;69.85;34.42;;;18.20;99.90;;;;;;4920619;29;20091;-74
2023/10/06 01:30:29;;;;;;;68.20;34.65;;;18.20;99.90;;;;;;4922830;29;20031;-74
2023/10/06 01:32:58;;;;;;;79.63;37.20;;;18.10;99.90;;;;;;4925287;29;20032;-75
2023/10/06 01:35:26;;;;;;;65.65;35.15;;;18.10;99.90;;;;;;4922509;29;20035;-75
2023/10/06 01:38:05;;;;;;;77.03;35.78;;;18.10;99.90;;;;;;4922934;29;20473;-74
2023/10/06 01:42:58;;;;;;;73.80;36.00;;;18.00;99.90;;;;;;4925140;29;20103;-74
2023/10/06 01:45:24;;;;;;;74.05;34.95;;;18.00;99.90;;;;;;4921245;29;20028;-75
2023/10/06 01:50:54;;;;;;;74.15;36.38;;;18.00;99.90;;;;;;4899828;29;20071;-75
2023/10/06 01:53:21;;;;;;;78.38;35.75;;;17.90;99.90;;;;;;4905183;29;20091;-74
2023/10/06 01:56:00;;;;;;;70.72;35.88;;;17.90;99.90;;;;;;4918319;29;20104;-74
2023/10/06 01:58:28;;;;;;;70.85;33.90;;;17.80;99.90;;;;;;4920894;29;20036;-75
2023/10/06 02:00:54;;;;;;;70.68;35.70;;;17.80;99.90;;;;;;4923401;29;20489;-75
2023/10/06 02:03:23;;;;;;;66.40;33.10;;;17.80;99.90;;;;;;4923322;29;20028;-75
2023/10/06 02:05:59;;;;;;;66.00;32.95;;;17.80;99.90;;;;;;4922194;29;20108;-74
2023/10/06 02:08:27;;;;;;;63.20;31.52;;;17.80;99.90;;;;;;4921441;29;20090;-74
2023/10/06 02:10:55;;;;;;;71.40;32.42;;;17.70;99.90;;;;;;4920741;29;20028;-75
2023/10/06 02:13:25;;;;;;;70.93;33.90;;;17.80;99.90;;;;;;4920991;29;20028;-75
2023/10/06 02:15:59;;;;;;;73.25;33.53;;;17.70;99.90;;;;;;4918663;29;20064;-75
2023/10/06 02:18:36;;;;;;;69.35;32.33;;;17.70;99.90;;;;;;4919851;29;20394;-75
2023/10/06 02:21:09;;;;;;;71.32;34.38;;;17.70;99.90;;;;;;4907907;29;20107;-75
2023/10/06 02:23:41;;;;;;;70.82;33.92;;;17.70;99.90;;;;;;4904864;29;20035;-74
2023/10/06 02:26:10;;;;;;;72.25;34.30;;;17.70;99.90;;;;;;4922439;29;20036;-74
2023/10/06 02:28:48;;;;;;;64.60;31.92;;;17.70;99.90;;;;;;4919496;29;20028;-75
2023/10/06 02:31:21;;;;;;;64.82;31.30;;;17.70;99.90;;;;;;4920282;29;20032;-75
2023/10/06 02:33:50;;;;;;;68.50;33.60;;;17.60;99.90;;;;;;4918727;29;20043;-75
2023/10/06 02:36:23;;;;;;;70.10;32.88;;;17.60;99.90;;;;;;4919361;29;20047;-74
2023/10/06 02:38:52;;;;;;;74.88;34.38;;;17.60;99.90;;;;;;4920911;29;20043;-75
2023/10/06 02:41:26;;;;;;;78.93;34.95;;;17.60;99.90;;;;;;4919603;29;20047;-74
2023/10/06 02:43:54;;;;;;;83.45;34.42;;;17.60;99.90;;;;;;4919626;29;20029;-74
2023/10/06 02:46:21;;;;;;;82.10;34.65;;;17.60;99.90;;;;;;4900080;29;20036;-75
2023/10/06 02:48:49;;;;;;;72.75;33.58;;;17.60;99.90;;;;;;4903686;29;20053;-75
2023/10/06 02:51:32;;;;;;;76.22;34.13;;;17.60;99.90;;;;;;4902628;29;20474;-75
2023/10/06 02:56:46;;;;;;;87.65;35.60;;;17.60;99.90;;;;;;4922189;29;20046;-75
2023/10/06 02:59:23;;;;;;;89.57;36.95;;;17.60;99.90;;;;;;4925952;29;20028;-75
2023/10/06 03:01:52;;;;;;;86.07;37.40;;;17.60;99.90;;;;;;4918499;29;20047;-75
2023/10/06 03:04:25;;;;;;;90.15;36.42;;;17.60;99.90;;;;;;4917141;29;20024;-75
2023/10/06 03:06:58;;;;;;;95.13;36.83;;;17.60;99.90;;;;;;4916062;29;20067;-74
2023/10/06 03:09:38;;;;;;;91.90;37.17;;;17.50;99.90;;;;;;4900304;29;20107;-75
2023/10/06 03:12:15;;;;;;;90.25;36.10;;;17.60;99.90;;;;;;4916016;29;20051;-74
2023/10/06 03:14:43;;;;;;;92.03;38.22;;;17.60;99.90;;;;;;4915562;29;20434;-75
2023/10/06 03:17:13;;;;;;;92.25;37.67;;;17.50;99.90;;;;;;4915654;29;20031;-74
2023/10/06 03:19:40;;;;;;;97.40;38.95;;;17.60;99.90;;;;;;4916282;29;20028;-74
2023/10/06 03:22:10;;;;;;;97.57;39.88;;;17.60;99.90;;;;;;4916334;29;20028;-75
2023/10/06 03:24:44;;;;;;;104.28;39.67;;;17.60;99.90;;;;;;4916884;29;20032;-74
2023/10/06 03:27:14;;;;;;;91.90;38.45;;;17.50;99.90;;;;;;4915719;29;20036;-74
2023/10/06 03:32:33;;;;;;;100.30;39.67;;;17.50;99.90;;;;;;4916625;29;20122;-76
2023/10/06 03:37:52;;;;;;;103.38;40.88;;;17.50;99.90;;;;;;4915634;29;20039;-76
2023/10/06 03:40:30;;;;;;;95.50;40.63;;;17.50;99.90;;;;;;4900780;29;20044;-74
2023/10/06 03:43:00;;;;;;;100.28;40.15;;;17.40;99.90;;;;;;4915333;29;20419;-74
2023/10/06 03:45:28;;;;;;;89.93;37.90;;;17.40;99.90;;;;;;4915859;29;20126;-74
2023/10/06 03:48:08;;;;;;;91.78;38.17;;;17.30;99.90;;;;;;4899771;29;20084;-74
2023/10/06 03:50:38;;;;;;;101.72;40.13;;;17.40;99.90;;;;;;4916777;29;20056;-75
2023/10/06 03:53:09;;;;;;;98.30;39.25;;;17.40;99.90;;;;;;4916651;29;20060;-75
2023/10/06 03:55:40;;;;;;;94.30;38.38;;;17.40;99.90;;;;;;4916436;29;20103;-75
2023/10/06 03:58:08;;;;;;;96.22;40.05;;;17.40;99.90;;;;;;4915610;29;20032;-75
2023/10/06 04:00:48;;;;;;;89.85;36.80;;;17.40;99.90;;;;;;4917018;29;20549;-75
2023/10/06 04:03:17;;;;;;;84.55;35.97;;;17.40;99.90;;;;;;4917471;29;20032;-75
2023/10/06 04:05:50;;;;;;;91.65;37.40;;;17.40;99.90;;;;;;4916409;29;20024;-75
2023/10/06 04:08:21;;;;;;;91.32;36.65;;;17.40;99.90;;;;;;4916722;29;20435;-76
2023/10/06 04:10:51;;;;;;;90.85;36.80;;;17.40;99.90;;;;;;4915336;29;20504;-76
2023/10/06 04:13:18;;;;;;;87.72;34.33;;;17.40;99.90;;;;;;4916568;29;20079;-76
2023/10/06 04:15:56;;;;;;;79.93;34.22;;;17.40;99.90;;;;;;4899170;29;20397;-76
2023/10/06 04:18:24;;;;;;;93.10;36.50;;;17.40;99.90;;;;;;4915155;29;20028;-76
2023/10/06 04:20:53;;;;;;;88.47;36.17;;;17.30;99.90;;;;;;4915374;29;20451;-77
2023/10/06 04:23:24;;;;;;;92.57;38.17;;;17.30;99.90;;;;;;4916570;29;20032;-80
2023/10/06 04:25:56;;;;;;;100.43;43.60;;;17.30;99.90;;;;;;4914924;29;20024;-75
2023/10/06 04:28:25;;;;;;;116.60;46.83;;;17.40;99.90;;;;;;4917583;29;20020;-75
2023/10/06 04:30:51;;;;;;;102.15;43.50;;;17.40;99.90;;;;;;4916385;29;20106;-75
2023/10/06 04:33:30;;;;;;;99.93;42.28;;;17.40;99.90;;;;;;4916597;29;20035;-75
2023/10/06 04:35:59;;;;;;;94.07;42.88;;;17.40;99.90;;;;;;4919780;29;20117;-75
2023/10/06 04:38:29;;;;;;;95.07;42.28;;;17.30;99.90;;;;;;4919230;29;20028;-75
2023/10/06 04:40:59;;;;;;;79.80;38.00;;;17.30;99.90;;;;;;4919151;29;20055;-75
2023/10/06 04:43:26;;;;;;;93.45;42.92;;;17.30;99.90;;;;;;4919977;29;20121;-75
2023/10/06 04:45:52;;;;;;;94.60;44.45;;;17.30;99.90;;;;;;4923943;29;20123;-75
2023/10/06 04:48:18;;;;;;;99.07;46.50;;;17.30;99.90;;;;;;4922004;29;20024;-75
2023/10/06 04:50:55;;;;;;;106.78;45.92;;;17.30;99.90;;;;;;4903383;29;20032;-75
2023/10/06 04:53:22;;;;;;;85.30;42.10;;;17.30;99.90;;;;;;4917481;29;20092;-75
2023/10/06 04:55:48;;;;;;;85.78;40.85;;;17.30;99.90;;;;;;4920285;29;20043;-75
2023/10/06 04:58:15;;;;;;;84.45;41.10;;;17.40;99.90;;;;;;4919162;29;20486;-75
2023/10/06 05:00:42;;;;;;;82.88;38.72;;;17.40;99.90;;;;;;4921630;29;20036;-75
2023/10/06 05:03:10;;;;;;;75.28;38.42;;;17.50;99.90;;;;;;4905601;29;20050;-75
2023/10/06 05:05:38;;;;;;;67.22;37.35;;;17.50;99.90;;;;;;4923620;29;20039;-75
2023/10/06 05:08:05;;;;;;;71.38;36.45;;;17.60;99.90;;;;;;4924570;29;20032;-75
2023/10/06 05:10:32;;;;;;;69.03;34.60;;;17.60;99.90;;;;;;4920270;29;20107;-75
2023/10/06 05:12:59;;;;;;;65.80;34.65;;;17.60;99.90;;;;;;4918168;29;20055;-75
2023/10/06 05:15:32;;;;;;;68.25;36.83;;;17.70;99.90;;;;;;4918054;29;20024;-76
2023/10/06 05:18:05;;;;;;;57.05;33.53;;;17.70;99.90;;;;;;4919132;29;20047;-76
2023/10/06 05:20:35;;;;;;;66.97;34.35;;;17.70;99.90;;;;;;4917798;29;20063;-75
2023/10/06 05:23:09;;;;;;;61.45;31.63;;;17.80;99.90;;;;;;4919259;29;20024;-75
2023/10/06 05:25:37;;;;;;;63.90;30.65;;;17.90;99.90;;;;;;4922428;29;20072;-75
2023/10/06 05:28:04;;;;;;;58.78;30.65;;;18.00;99.90;;;;;;4918758;29;20389;-75
2023/10/06 05:30:34;;;;;;;54.08;28.55;;;18.10;99.90;;;;;;4921609;29;20440;-75
2023/10/06 05:33:00;;;;;;;45.35;25.83;;;18.20;99.90;;;;;;4920548;29;20032;-75
2023/10/06 05:35:39;;;;;;;44.28;25.02;;;18.30;99.90;;;;;;4924843;29;20103;-75
2023/10/06 05:38:15;;;;;;;53.65;28.48;;;18.40;99.90;;;;;;4925234;29;20023;-75
2023/10/06 05:40:48;;;;;;;75.45;35.70;;;18.50;99.90;;;;;;4920050;29;20072;-75
2023/10/06 05:43:17;;;;;;;69.15;33.00;;;18.60;99.90;;;;;;4917871;29;20047;-75
2023/10/06 05:45:45;;;;;;;58.92;30.92;;;18.70;99.90;;;;;;4919773;29;20035;-75
2023/10/06 05:48:15;;;;;;;62.78;31.42;;;18.80;99.90;;;;;;4922206;29;20036;-75
2023/10/06 05:50:43;;;;;;;57.05;30.15;;;19.00;99.90;;;;;;4920390;29;20474;-75
2023/10/06 05:53:17;;;;;;;44.70;25.67;;;19.40;99.90;;;;;;4921327;29;20359;-75
2023/10/06 05:55:43;;;;;;;44.03;24.88;;;19.90;99.90;;;;;;4920265;29;20389;-75
2023/10/06 05:58:19;;;;;;;37.97;24.13;;;20.30;99.90;;;;;;4919664;29;20082;-75
2023/10/06 06:01:06;;;;;;;36.35;25.50;;;20.90;99.90;;;;;;4921512;29;20068;-75
2023/10/06 06:03:33;;;;;;;31.38;24.92;;;21.60;99.90;;;;;;4918712;29;20036;-75
2023/10/06 06:06:08;;;;;;;34.97;27.58;;;21.80;99.90;;;;;;4918638;29;20020;-78
2023/10/06 06:08:37;;;;;;;37.15;30.58;;;22.30;99.90;;;;;;4918992;29;20115;-75
2023/10/06 06:11:05;;;;;;;33.95;30.20;;;22.80;99.90;;;;;;4901977;29;20043;-75
2023/10/06 06:13:38;;;;;;;35.97;32.15;;;23.00;99.90;;;;;;4901922;29;20039;-76
2023/10/06 06:16:05;;;;;;;41.50;33.97;;;22.60;99.90;;;;;;4918853;29;20028;-75
2023/10/06 06:18:34;;;;;;;43.83;33.85;;;22.20;99.90;;;;;;4903269;29;20028;-76
2023/10/06 06:21:03;;;;;;;42.63;33.63;;;21.80;99.90;;;;;;4918757;29;20123;-75
2023/10/06 06:23:35;;;;;;;42.08;33.92;;;21.50;99.90;;;;;;4919364;29;20084;-75
2023/10/06 06:26:02;;;;;;;43.67;33.65;;;21.30;99.90;;;;;;4908419;29;20032;-75
2023/10/06 06:28:28;;;;;;;43.28;33.83;;;21.20;99.90;;;;;;4882995;29;20390;-75
2023/10/06 06:30:55;;;;;;;41.67;32.35;;;21.00;99.90;;;;;;4899278;29;20482;-75
2023/10/06 06:33:25;;;;;;;43.22;32.47;;;21.00;99.90;;;;;;4915324;29;20032;-89
2023/10/06 06:35:52;;;;;;;41.10;32.00;;;20.90;99.90;;;;;;4917236;29;20067;-85
2023/10/06 06:38:18;;;;;;;38.47;29.17;;;20.90;99.90;;;;;;4918560;29;20438;-85
2023/10/06 06:40:45;;;;;;;38.78;29.20;;;21.00;99.90;;;;;;4901657;29;20039;-85
2023/10/06 06:43:12;;;;;;;36.47;29.45;;;21.10;99.90;;;;;;4901377;29;20136;-85
2023/10/06 06:45:42;;;;;;;40.40;28.65;;;21.10;99.90;;;;;;4916798;29;20032;-86
2023/10/06 06:48:16;;;;;;;39.78;29.85;;;21.10;99.90;;;;;;4901076;29;20083;-87
2023/10/06 06:50:48;;;;;;;38.80;30.35;;;21.20;99.90;;;;;;4901675;29;20036;-86
2023/10/06 06:53:19;;;;;;;39.80;29.02;;;21.20;99.90;;;;;;4901227;29;20032;-87
2023/10/06 06:55:50;;;;;;;40.33;29.58;;;21.40;99.90;;;;;;4901512;29;20152;-84
2023/10/06 06:58:17;;;;;;;37.80;29.77;;;21.50;99.90;;;;;;4901523;29;20513;-85
2023/10/06 07:00:47;;;;;;;39.92;30.80;;;21.40;99.90;;;;;;4900878;29;20040;-84
2023/10/06 07:03:14;;;;;;;42.28;30.88;;;21.50;99.90;;;;;;4898905;29;20033;-84
2023/10/06 07:05:42;;;;;;;45.10;30.75;;;21.60;99.90;;;;;;4897761;29;20039;-85
2023/10/06 07:08:11;;;;;;;40.72;31.30;;;21.90;99.90;;;;;;4913296;29;20028;-85
2023/10/06 07:10:46;;;;;;;43.25;30.90;;;22.00;99.90;;;;;;4897690;29;20048;-85
2023/10/06 07:13:13;;;;;;;42.15;30.38;;;22.30;99.90;;;;;;4907370;29;20024;-84
2023/10/06 07:15:39;;;;;;;42.22;31.17;;;22.60;99.90;;;;;;4916592;29;20032;-84
2023/10/06 07:18:11;;;;;;;42.53;31.02;;;22.80;99.90;;;;;;4915998;29;20063;-81
2023/10/06 07:20:44;;;;;;;38.42;29.77;;;22.80;99.90;;;;;;4916849;29;20040;-87
2023/10/06 07:23:11;;;;;;;34.25;27.85;;;22.70;99.90;;;;;;4919511;29;20028;-86
2023/10/06 07:25:37;;;;;;;32.65;27.08;;;22.60;99.90;;;;;;4903750;29;20055;-86
2023/10/06 07:28:06;;;;;;;37.58;26.58;;;22.60;99.90;;;;;;4902060;29;20028;-87
2023/10/06 07:30:36;;;;;;;32.30;24.05;;;22.90;99.90;;;;;;4902119;29;20020;-87
2023/10/06 07:33:05;;;;;;;25.92;22.90;;;23.40;99.90;;;;;;4905185;29;20051;-87
2023/10/06 07:35:51;;;;;;;29.42;24.55;;;24.30;99.90;;;;;;4903067;29;20056;-86
2023/10/06 07:38:18;;;;;;;26.85;24.15;;;24.90;99.90;;;;;;4903949;29;20122;-87
2023/10/06 07:40:44;;;;;;;26.20;23.40;;;24.90;99.90;;;;;;4919988;29;20036;-86
2023/10/06 07:43:12;;;;;;;24.85;22.27;;;24.50;99.90;;;;;;4902199;29;20028;-85
2023/10/06 07:45:39;;;;;;;21.15;19.10;;;24.00;99.90;;;;;;4902284;29;20386;-85
2023/10/06 07:48:05;;;;;;;20.15;17.90;;;23.80;99.90;;;;;;4902085;29;20032;-85
2023/10/06 07:50:34;;;;;;;19.92;17.88;;;23.70;99.90;;;;;;4921748;29;20024;-87
2023/10/06 07:53:01;;;;;;;20.88;18.80;;;24.10;99.90;;;;;;4904567;29;20060;-85
2023/10/06 07:55:28;;;;;;;21.50;19.63;;;24.70;99.90;;;;;;4900276;29;20064;-85
2023/10/06 07:57:54;;;;;;;21.15;19.13;;;24.80;99.90;;;;;;4900263;29;20032;-86
2023/10/06 08:00:28;;;;;;;21.42;19.17;;;24.50;99.90;;;;;;4900612;29;20068;-86
2023/10/06 08:02:56;;;;;;;;;;;24.30;99.90;;;;;;4900854;29;20036;-86
2023/10/06 08:05:23;;;;;;;20.48;18.58;;;24.10;99.90;;;;;;4900129;29;19908;-85
2023/10/06 08:07:50;;;;;;;20.52;18.67;;;24.20;99.90;;;;;;4897544;29;20028;-87
2023/10/06 08:10:18;;;;;;;20.35;18.55;;;24.40;99.90;;;;;;4897650;29;20060;-86
2023/10/06 08:12:56;;;;;;;22.00;19.80;;;24.50;99.90;;;;;;4897613;29;20092;-87
2023/10/06 08:15:27;;;;;;;21.17;18.98;;;24.40;99.90;;;;;;4905002;29;20020;-87
2023/10/06 08:17:55;;;;;;;21.27;18.90;;;24.40;99.90;;;;;;4901162;29;20062;-87
2023/10/06 08:20:27;;;;;;;21.23;19.02;;;24.40;99.90;;;;;;4902242;29;20049;-83
2023/10/06 08:22:58;;;;;;;24.55;20.23;;;24.60;99.90;;;;;;4896829;29;20497;-82
2023/10/06 08:25:24;;;;;;;22.25;20.33;;;24.50;99.90;;;;;;4903018;29;20073;-83
2023/10/06 08:27:51;;;;;;;22.80;20.92;;;24.50;99.90;;;;;;4917070;29;20026;-86
2023/10/06 08:30:22;;;;;;;24.08;21.02;;;24.60;99.90;;;;;;4898618;29;20483;-85
2023/10/06 08:32:53;;;;;;;25.13;22.17;;;24.80;99.90;;;;;;4901121;29;20084;-87
2023/10/06 08:35:21;;;;;;;23.33;20.67;;;24.70;99.90;;;;;;4900967;29;20032;-86
2023/10/06 08:37:54;;;;;;;22.08;19.85;;;24.60;99.90;;;;;;4903997;29;20036;-85
2023/10/06 08:40:24;;;;;;;24.05;21.52;;;24.60;99.90;;;;;;4919811;29;20040;-87
2023/10/06 08:42:57;;;;;;;24.13;22.02;;;24.60;99.90;;;;;;4904034;29;20485;-86
2023/10/06 08:45:30;;;;;;;23.02;20.75;;;24.70;99.90;;;;;;4919511;29;20035;-85
2023/10/06 08:48:01;;;;;;;22.30;20.17;;;24.90;99.90;;;;;;4900608;29;20036;-86
2023/10/06 08:50:29;;;;;;;23.60;21.60;;;24.90;99.90;;;;;;4900833;29;20130;-86
2023/10/06 08:52:57;;;;;;;24.90;22.60;;;25.10;99.90;;;;;;4901179;29;20509;-86
2023/10/06 08:55:25;;;;;;;24.38;21.92;;;25.00;99.90;;;;;;4900324;29;20060;-85
2023/10/06 08:57:53;;;;;;;25.98;23.67;;;25.10;99.90;;;;;;4903459;29;20043;-87
2023/10/06 09:00:31;;;;;;;26.38;23.77;;;25.30;99.90;;;;;;4919420;29;20054;-88
2023/10/06 09:03:07;;;;;;;25.30;23.08;;;25.40;99.90;;;;;;4919142;29;20160;-86
2023/10/06 09:05:41;;;;;;;25.95;23.30;;;25.60;99.90;;;;;;4917372;29;20032;-86
2023/10/06 09:08:09;;;;;;;;;;;25.80;99.90;;;;;;4904531;29;20040;-87
2023/10/06 09:10:40;;;;;;;26.60;24.08;;;25.90;99.90;;;;;;4903543;29;20031;-86
2023/10/06 09:13:12;;;;;;;27.23;24.58;;;25.90;99.90;;;;;;4919398;29;20035;-87
2023/10/06 09:15:44;;;;;;;26.75;24.23;;;26.00;99.90;;;;;;4904055;29;20482;-86
2023/10/06 09:18:24;;;;;;;28.48;25.58;;;25.90;99.90;;;;;;4903349;29;20064;-86
2023/10/06 09:20:51;;;;;;;27.55;24.90;;;26.00;99.90;;;;;;4903333;29;20036;-87
2023/10/06 09:23:39;;;;;;;27.15;24.85;;;26.00;99.90;;;;;;4903373;29;20029;-86
2023/10/06 09:26:11;;;;;;;27.33;24.90;;;26.00;99.90;;;;;;4903226;29;20086;-86
2023/10/06 09:28:52;;;;;;;26.58;24.23;;;26.10;99.90;;;;;;4903387;29;20055;-86
2023/10/06 09:31:44;;;;;;;26.58;24.45;;;25.60;99.90;;;;;;4903036;29;20031;-88
2023/10/06 09:34:11;;;;;;;26.73;24.42;;;25.20;99.90;;;;;;4903373;29;20028;-87
2023/10/06 09:36:43;;;;;;;26.60;24.17;;;25.30;99.90;;;;;;4904547;29;20486;-87
2023/10/06 09:39:19;;;;;;;26.80;24.40;;;25.60;99.90;;;;;;4900017;29;20028;-87
2023/10/06 09:41:47;;;;;;;26.95;24.63;;;25.50;99.90;;;;;;4899180;29;20041;-87
2023/10/06 09:44:18;;;;;;;27.63;24.88;;;25.50;99.90;;;;;;4899934;29;20089;-87
2023/10/06 09:46:46;;;;;;;27.50;24.90;;;25.60;99.90;;;;;;4899752;29;20111;-87
2023/10/06 09:49:18;;;;;;;28.17;25.20;;;25.90;99.90;;;;;;4899962;29;20482;-87
2023/10/06 09:51:45;;;;;;;26.95;24.70;;;25.90;99.90;;;;;;4899836;29;20036;-87
2023/10/06 09:54:12;;;;;;;26.38;24.20;;;25.80;99.90;;;;;;4901953;29;20418;-86
2023/10/06 09:56:42;;;;;;;25.88;23.67;;;25.80;99.90;;;;;;4902733;29;20028;-87
2023/10/06 09:59:13;;;;;;;26.25;23.95;;;25.80;99.90;;;;;;4903061;29;20036;-87
2023/10/06 10:01:45;;;;;;;25.98;23.90;;;25.70;99.90;;;;;;4902654;29;20486;-87
2023/10/06 10:04:13;;;;;;;25.77;23.58;;;26.10;99.90;;;;;;4902857;29;20455;-87
2023/10/06 10:06:46;;;;;;;25.00;22.67;;;26.10;99.90;;;;;;4902913;29;20112;-88
2023/10/06 10:09:16;;;;;;;25.97;23.53;;;26.10;99.90;;;;;;4902690;29;20028;-87
2023/10/06 10:12:02;;;;;;;28.52;25.83;;;26.00;99.90;;;;;;4903396;29;20040;-87
2023/10/06 10:14:56;;;;;;;26.10;24.00;;;26.10;99.90;;;;;;4903692;29;20099;-87
2023/10/06 10:17:53;;;;;;;25.98;23.98;;;26.10;99.90;;;;;;4910237;29;20037;-88
2023/10/06 10:20:25;;;;;;;27.95;25.25;;;26.00;99.90;;;;;;4917651;29;20050;-86
2023/10/06 10:22:56;;;;;;;28.17;25.60;;;26.40;99.90;;;;;;4903290;29;20110;-88
2023/10/06 10:25:29;;;;;;;28.83;26.05;;;26.60;99.90;;;;;;4902457;29;20032;-87
2023/10/06 10:28:20;;;;;;;27.80;25.15;;;26.80;99.90;;;;;;4917686;29;20131;-87
2023/10/06 10:30:57;;;;;;;28.70;26.20;;;26.90;99.90;;;;;;4917762;29;20576;-87
2023/10/06 10:33:29;;;;;;;28.52;26.08;;;26.90;99.90;;;;;;4917755;29;20505;-87
2023/10/06 10:36:15;;;;;;;27.13;24.73;;;26.60;99.90;;;;;;4917868;29;20044;-87
2023/10/06 10:38:42;;;;;;;28.25;25.73;;;26.40;99.90;;;;;;4917885;29;20364;-87
2023/10/06 10:41:10;;;;;;;28.77;26.55;;;26.10;99.90;;;;;;4901690;29;20035;-87
2023/10/06 10:43:38;;;;;;;28.33;25.77;;;26.20;99.90;;;;;;4917613;29;20036;-87
2023/10/06 10:46:12;;;;;;;28.58;25.90;;;26.20;99.90;;;;;;4901830;29;20123;-87
2023/10/06 10:48:47;;;;;;;29.08;26.52;;;26.30;99.90;;;;;;4901694;29;20028;-85
2023/10/06 10:51:21;;;;;;;27.70;25.40;;;26.40;99.90;;;;;;4917730;29;20036;-88
2023/10/06 10:53:57;;;;;;;28.60;26.30;;;26.50;99.90;;;;;;4916819;29;20047;-87
2023/10/06 10:56:39;;;;;;;28.73;26.25;;;26.70;99.90;;;;;;4901905;29;20040;-87
2023/10/06 10:59:05;;;;;;;28.73;26.60;;;26.90;99.90;;;;;;4901918;29;20032;-87
2023/10/06 11:01:38;;;;;;;28.92;26.30;;;27.00;99.90;;;;;;4898353;29;20089;-87
2023/10/06 11:04:29;;;;;;;28.75;26.25;;;27.10;99.90;;;;;;4901425;29;20024;-86
2023/10/06 11:06:58;;;;;;;29.02;26.58;;;27.20;99.90;;;;;;4917117;29;20063;-87
2023/10/06 11:09:40;;;;;;;29.75;27.05;;;27.30;99.90;;;;;;4901397;29;20114;-87
2023/10/06 11:12:25;;;;;;;29.30;26.85;;;27.20;99.90;;;;;;4917062;29;20036;-88
2023/10/06 11:15:12;;;;;;;30.73;27.73;;;26.80;99.90;;;;;;4917097;29;20032;-85
2023/10/06 11:17:41;;;;;;;31.23;28.30;;;26.50;99.90;;;;;;4898363;29;20029;-88
2023/10/06 11:20:15;;;;;;;30.73;27.88;;;26.40;99.90;;;;;;4898279;29;20036;-88
2023/10/06 11:22:59;;;;;;;30.80;28.00;;;26.20;99.90;;;;;;4898346;29;20143;-88
2023/10/06 11:25:36;;;;;;;30.00;27.25;;;26.00;99.90;;;;;;4882492;29;20088;-87
2023/10/06 11:28:08;;;;;;;29.10;26.60;;;25.80;99.90;;;;;;4901233;29;20043;-88
2023/10/06 11:30:38;;;;;;;28.35;26.15;;;25.70;99.90;;;;;;4901213;29;20040;-84
2023/10/06 11:33:08;;;;;;;28.98;26.55;;;25.80;99.90;;;;;;4916867;29;20153;-88
2023/10/06 11:35:36;;;;;;;28.33;26.13;;;25.70;99.90;;;;;;4901209;29;20095;-88
2023/10/06 11:38:11;;;;;;;28.10;25.75;;;25.70;99.90;;;;;;4900726;29;20044;-87
2023/10/06 11:40:40;;;;;;;28.25;25.88;;;25.60;99.90;;;;;;4901103;29;20066;-88
2023/10/06 11:43:13;;;;;;;28.25;25.85;;;25.50;99.90;;;;;;4900889;29;20059;-87
2023/10/06 11:45:42;;;;;;;27.77;25.45;;;25.30;99.90;;;;;;4916501;29;20028;-87
2023/10/06 11:48:30;;;;;;;28.73;25.90;;;25.20;99.90;;;;;;4900862;29;20039;-86
2023/10/06 11:51:08;;;;;;;26.95;24.60;;;25.30;99.90;;;;;;4901438;29;20106;-86
2023/10/06 11:53:39;;;;;;;28.95;26.33;;;25.40;99.90;;;;;;4902585;29;20035;-88
2023/10/06 11:56:08;;;;;;;28.92;26.08;;;25.40;99.90;;;;;;4902450;29;20074;-89
2023/10/06 11:58:36;;;;;;;27.23;25.02;;;25.30;99.90;;;;;;4901897;29;20040;-88
2023/10/06 12:01:06;;;;;;;28.17;25.38;;;25.20;99.90;;;;;;4902282;29;20127;-90
2023/10/06 12:03:42;;;;;;;27.15;24.70;;;25.30;99.90;;;;;;4901956;29;20097;-89
2023/10/06 12:06:16;;;;;;;26.98;24.67;;;25.10;99.90;;;;;;4902515;29;20127;-90
2023/10/06 12:08:44;;;;;;;27.58;25.15;;;25.10;99.90;;;;;;4904192;29;20032;-85
2023/10/06 12:11:15;;;;;;;26.45;24.23;;;25.00;99.90;;;;;;4920501;29;20099;-85
2023/10/06 12:13:45;;;;;;;27.13;25.02;;;25.10;99.90;;;;;;4905370;29;20036;-84
2023/10/06 12:16:15;;;;;;;27.02;24.92;;;25.20;99.90;;;;;;4905519;29;20036;-85
2023/10/06 12:18:46;;;;;;;28.45;26.05;;;25.50;99.90;;;;;;4923906;29;20036;-88
2023/10/06 12:21:17;;;;;;;28.10;25.80;;;25.70;99.90;;;;;;4914783;29;20505;-89
2023/10/06 12:23:45;;;;;;;28.35;26.05;;;25.90;99.90;;;;;;4906981;29;20039;-87
2023/10/06 12:26:11;;;;;;;28.08;25.77;;;25.60;99.90;;;;;;4904629;29;20020;-91
2023/10/06 12:28:38;;;;;;;27.38;25.15;;;25.40;99.90;;;;;;4917814;29;20117;-88
2023/10/06 12:31:07;;;;;;;27.33;25.13;;;25.40;99.90;;;;;;4902984;29;20044;-89
2023/10/06 12:33:38;;;;;;;26.80;24.60;;;25.50;99.90;;;;;;4907870;29;20032;-89
2023/10/06 12:36:08;;;;;;;27.58;25.17;;;25.30;99.90;;;;;;4944884;29;20516;-88
2023/10/06 12:38:36;;;;;;;27.30;25.10;;;25.40;99.90;;;;;;4912270;29;20071;-91
2023/10/06 12:41:07;;;;;;;28.08;25.58;;;25.40;99.90;;;;;;4927782;29;20032;-91
2023/10/06 12:43:47;;;;;;;26.55;24.58;;;25.60;99.90;;;;;;4922676;29;20060;-89
2023/10/06 12:46:18;;;;;;;27.65;25.38;;;25.70;99.90;;;;;;4938184;29;20063;-88
2023/10/06 12:48:46;;;;;;;27.35;24.90;;;25.70;99.90;;;;;;4922840;29;20068;-90
2023/10/06 12:51:17;;;;;;;28.98;26.67;;;25.60;99.90;;;;;;4923121;29;20170;-90
2023/10/06 12:53:44;;;;;;;27.50;25.30;;;25.70;99.90;;;;;;4922774;29;20050;-88
2023/10/06 12:56:14;;;;;;;28.85;26.35;;;25.60;99.90;;;;;;4907352;29;20115;-89
2023/10/06 12:58:42;;;;;;;28.38;25.73;;;25.50;99.90;;;;;;4920448;29;20493;-89
2023/10/06 13:01:08;;;;;;;27.63;25.33;;;25.70;99.90;;;;;;4922218;29;20044;-90
2023/10/06 13:03:35;;;;;;;27.02;24.77;;;25.90;99.90;;;;;;4922176;29;20028;-91